createdAt,value
2022-08-05T00:01:36.534Z,20.85
2022-08-05T00:04:17.145Z,20.81
2022-08-05T00:06:47.573Z,20.78
2022-08-05T00:09:20.414Z,20.77
2022-08-05T00:11:55.836Z,20.79
2022-08-05T00:14:31.379Z,20.78
2022-08-05T00:17:02.064Z,20.78
2022-08-05T00:19:32.790Z,20.78
2022-08-05T00:22:02.400Z,20.77
2022-08-05T00:24:31.186Z,20.72
2022-08-05T00:27:01.739Z,20.65
2022-08-05T00:29:38.064Z,20.60
2022-08-05T00:32:13.013Z,20.53
2022-08-05T00:35:03.982Z,20.46
2022-08-05T00:37:50.617Z,20.38
2022-08-05T00:40:27.930Z,20.32
2022-08-05T00:43:00.865Z,20.24
2022-08-05T00:45:38.511Z,20.22
2022-08-05T00:48:11.550Z,20.22
2022-08-05T00:50:41.218Z,20.20
2022-08-05T00:53:44.955Z,20.21
2022-08-05T00:55:58.632Z,20.23
2022-08-05T00:58:28.047Z,20.24
2022-08-05T01:00:56.450Z,20.26
2022-08-05T01:03:33.392Z,20.26
2022-08-05T01:06:02.636Z,20.27
2022-08-05T01:08:42.974Z,20.22
2022-08-05T01:11:22.629Z,20.20
2022-08-05T01:14:08.481Z,20.13
2022-08-05T01:16:41.687Z,20.11
2022-08-05T01:19:17.458Z,20.11
2022-08-05T01:21:59.856Z,20.12
2022-08-05T01:24:51.285Z,20.05
2022-08-05T01:27:33.048Z,20.04
2022-08-05T01:30:03.722Z,20.05
2022-08-05T01:32:33.384Z,20.08
2022-08-05T01:35:04.230Z,20.09
2022-08-05T01:37:44.269Z,20.11
2022-08-05T01:40:12.839Z,20.12
2022-08-05T01:42:41.190Z,20.10
2022-08-05T01:45:11.543Z,20.06
2022-08-05T01:47:43.434Z,20.01
2022-08-05T01:50:15.328Z,19.93
2022-08-05T01:52:44.209Z,19.89
2022-08-05T01:55:13.045Z,19.82
2022-08-05T01:58:09.772Z,19.77
2022-08-05T02:00:31.610Z,19.72
2022-08-05T02:03:03.729Z,19.68
2022-08-05T02:05:34.359Z,19.62
2022-08-05T02:08:04.267Z,19.59
2022-08-05T02:10:49.750Z,19.58
2022-08-05T02:13:20.131Z,19.52
2022-08-05T02:15:58.915Z,19.51
2022-08-05T02:18:34.651Z,19.49
2022-08-05T02:21:05.777Z,19.44
2022-08-05T02:23:43.782Z,19.40
2022-08-05T02:26:14.913Z,19.34
2022-08-05T02:28:46.030Z,19.30
2022-08-05T02:31:16.915Z,19.27
2022-08-05T02:33:57.173Z,19.23
2022-08-05T02:36:31.612Z,19.16
2022-08-05T02:39:00.130Z,19.09
2022-08-05T02:41:42.830Z,19.02
2022-08-05T02:44:16.653Z,18.96
2022-08-05T02:46:58.730Z,18.88
2022-08-05T02:49:36.701Z,18.83
2022-08-05T02:52:07.573Z,18.75
2022-08-05T02:54:37.430Z,18.66
2022-08-05T02:57:10.259Z,18.60
2022-08-05T02:59:55.258Z,18.57
2022-08-05T03:02:27.417Z,18.55
2022-08-05T03:04:56.134Z,18.56
2022-08-05T03:08:00.115Z,18.55
2022-08-05T03:10:13.243Z,18.55
2022-08-05T03:12:41.530Z,18.53
2022-08-05T03:15:12.436Z,18.48
2022-08-05T03:17:44.825Z,18.45
2022-08-05T03:20:13.841Z,18.42
2022-08-05T03:22:44.030Z,18.41
2022-08-05T03:25:32.611Z,18.36
2022-08-05T03:28:07.199Z,18.36
2022-08-05T03:30:36.679Z,18.33
2022-08-05T03:33:07.759Z,18.25
2022-08-05T03:35:40.945Z,18.23
2022-08-05T03:38:11.710Z,18.21
2022-08-05T03:40:41.668Z,18.11
2022-08-05T03:43:59.131Z,18.05
2022-08-05T03:46:01.810Z,18.01
2022-08-05T03:48:35.354Z,17.94
2022-08-05T03:52:37.118Z,17.89
2022-08-05T03:55:50.443Z,17.85
2022-08-05T03:56:48.354Z,17.84
2022-08-05T03:59:20.690Z,17.81
2022-08-05T04:01:50.303Z,17.74
2022-08-05T04:04:21.106Z,17.81
2022-08-05T04:06:51.340Z,17.84
2022-08-05T04:09:26.096Z,17.83
2022-08-05T04:11:56.372Z,17.85
2022-08-05T04:14:29.978Z,17.90
2022-08-05T04:17:00.768Z,17.95
2022-08-05T04:19:31.634Z,18.03
2022-08-05T04:22:09.576Z,18.12
2022-08-05T04:24:44.486Z,18.21
2022-08-05T04:27:41.721Z,18.29
2022-08-05T04:30:09.884Z,18.37
2022-08-05T04:32:37.974Z,18.39
2022-08-05T04:35:17.638Z,18.46
2022-08-05T04:38:02.370Z,18.51
2022-08-05T04:40:36.036Z,18.57
2022-08-05T04:43:04.333Z,18.63
2022-08-05T04:45:48.280Z,18.69
2022-08-05T04:48:27.122Z,18.73
2022-08-05T04:51:03.813Z,18.81
2022-08-05T04:53:39.786Z,18.84
2022-08-05T04:56:15.367Z,18.87
2022-08-05T04:58:56.892Z,18.87
2022-08-05T05:01:33.440Z,18.84
2022-08-05T05:04:13.319Z,18.84
2022-08-05T05:06:49.089Z,18.85
2022-08-05T05:09:20.160Z,18.83
2022-08-05T05:11:54.355Z,18.87
2022-08-05T05:14:27.895Z,18.87
2022-08-05T05:17:00.033Z,18.91
2022-08-05T05:19:36.341Z,18.92
2022-08-05T05:22:24.668Z,18.98
2022-08-05T05:24:57.067Z,18.99
2022-08-05T05:27:44.214Z,19.01
2022-08-05T05:30:15.642Z,19.06
2022-08-05T05:33:00.422Z,19.09
2022-08-05T05:35:34.256Z,19.14
2022-08-05T05:38:09.276Z,19.14
2022-08-05T05:40:47.976Z,19.18
2022-08-05T05:43:28.209Z,19.19
2022-08-05T05:46:13.765Z,19.25
2022-08-05T05:48:44.797Z,19.25
2022-08-05T05:51:19.845Z,19.27
2022-08-05T05:53:57.709Z,19.27
2022-08-05T05:56:32.936Z,19.28
2022-08-05T05:59:05.494Z,19.34
2022-08-05T06:01:37.426Z,19.40
2022-08-05T06:04:08.076Z,19.47
2022-08-05T06:06:36.426Z,19.54
2022-08-05T06:09:06.233Z,19.58
2022-08-05T06:11:39.366Z,19.62
2022-08-05T06:14:07.727Z,19.68
2022-08-05T06:16:37.241Z,19.78
2022-08-05T06:19:07.580Z,19.88
2022-08-05T06:21:38.714Z,19.97
2022-08-05T06:24:12.587Z,20.08
2022-08-05T06:26:51.270Z,20.17
2022-08-05T06:29:25.267Z,20.25
2022-08-05T06:32:21.331Z,20.31
2022-08-05T06:34:57.433Z,20.37
2022-08-05T06:37:56.224Z,20.45
2022-08-05T06:40:17.905Z,20.52
2022-08-05T06:42:46.549Z,20.58
2022-08-05T06:45:21.027Z,20.61
2022-08-05T06:48:37.246Z,20.63
2022-08-05T06:50:37.669Z,20.69
2022-08-05T06:53:19.641Z,20.75
2022-08-05T06:55:53.187Z,20.83
2022-08-05T06:58:35.311Z,20.86
2022-08-05T07:01:05.443Z,20.90
2022-08-05T07:03:33.646Z,20.95
2022-08-05T07:06:05.818Z,21.03
2022-08-05T07:08:42.832Z,21.09
2022-08-05T07:11:15.497Z,21.15
2022-08-05T07:14:01.313Z,21.17
2022-08-05T07:18:01.615Z,21.07
2022-08-05T07:22:28.976Z,21.13
2022-08-05T07:25:23.450Z,21.16
2022-08-05T07:27:58.017Z,21.24
2022-08-05T07:30:32.562Z,21.26
2022-08-05T07:33:05.549Z,21.26
2022-08-05T07:36:02.940Z,21.16
2022-08-05T07:38:33.491Z,21.09
2022-08-05T07:41:35.124Z,21.06
2022-08-05T07:43:56.623Z,21.05
2022-08-05T07:46:26.599Z,21.15
2022-08-05T07:49:04.535Z,21.23
2022-08-05T07:51:37.145Z,21.24
2022-08-05T07:54:10.376Z,21.25
2022-08-05T07:57:01.582Z,21.27
2022-08-05T07:59:38.094Z,21.29
2022-08-05T08:02:16.082Z,21.20
2022-08-05T08:04:48.785Z,21.12
2022-08-05T08:07:17.827Z,21.18
2022-08-05T08:09:46.631Z,21.20
2022-08-05T08:12:35.549Z,21.21
2022-08-05T08:15:14.292Z,21.23
2022-08-05T08:17:49.844Z,21.26
2022-08-05T08:20:43.978Z,21.28
2022-08-05T08:24:01.070Z,21.36
2022-08-05T08:26:02.688Z,21.43
2022-08-05T08:28:36.334Z,21.49
2022-08-05T08:31:10.054Z,21.54
2022-08-05T08:33:45.894Z,21.68
2022-08-05T08:36:29.690Z,21.78
2022-08-05T08:39:04.923Z,21.81
2022-08-05T08:41:52.275Z,21.82
2022-08-05T08:45:25.004Z,21.85
2022-08-05T08:48:06.233Z,21.90
2022-08-05T08:50:30.725Z,22.03
2022-08-05T08:53:03.387Z,22.16
2022-08-05T08:56:03.653Z,22.18
2022-08-05T08:58:43.389Z,22.09
2022-08-05T09:01:18.385Z,22.04
2022-08-05T09:03:55.158Z,22.02
2022-08-05T09:06:29.370Z,22.07
2022-08-05T09:08:59.513Z,22.03
2022-08-05T09:11:52.861Z,22.01
2022-08-05T09:14:58.425Z,22.07
2022-08-05T09:17:09.549Z,22.01
2022-08-05T09:20:02.541Z,21.97
2022-08-05T09:23:05.141Z,22.00
2022-08-05T09:26:01.958Z,22.00
2022-08-05T09:28:32.004Z,21.94
2022-08-05T09:31:22.151Z,22.08
2022-08-05T09:33:52.449Z,22.17
2022-08-05T09:36:27.823Z,22.37
2022-08-05T09:39:03.764Z,22.54
2022-08-05T09:41:58.346Z,22.58
2022-08-05T09:44:38.525Z,22.45
2022-08-05T09:47:13.966Z,22.45
2022-08-05T09:50:01.226Z,22.51
2022-08-05T09:52:33.794Z,22.52
2022-08-05T09:55:06.299Z,22.59
2022-08-05T09:57:39.686Z,22.78
2022-08-05T10:00:13.626Z,22.87
2022-08-05T10:02:43.409Z,22.98
2022-08-05T10:05:13.966Z,23.00
2022-08-05T10:08:36.106Z,23.01
2022-08-05T10:10:41.568Z,23.11
2022-08-05T10:13:10.134Z,23.23
2022-08-05T10:15:41.384Z,23.47
2022-08-05T10:18:12.563Z,23.57
2022-08-05T10:20:43.029Z,23.48
2022-08-05T10:23:34.339Z,23.20
2022-08-05T10:26:06.972Z,23.19
2022-08-05T10:28:36.445Z,23.20
2022-08-05T10:32:49.238Z,23.41
2022-08-05T10:33:54.793Z,23.40
2022-08-05T10:36:26.036Z,23.40
2022-08-05T10:39:01.039Z,23.15
2022-08-05T10:41:45.227Z,23.33
2022-08-05T10:44:18.535Z,23.61
2022-08-05T10:46:50.671Z,23.84
2022-08-05T10:49:27.217Z,24.11
2022-08-05T10:52:05.153Z,24.35
2022-08-05T10:55:03.997Z,24.48
2022-08-05T10:57:33.907Z,24.70
2022-08-05T11:00:19.153Z,24.81
2022-08-05T11:03:25.979Z,24.85
2022-08-05T11:06:15.579Z,24.73
2022-08-05T11:09:32.285Z,24.83
2022-08-05T11:12:50.369Z,24.66
2022-08-05T11:16:00.499Z,24.54
2022-08-05T11:18:25.828Z,24.65
2022-08-05T11:20:54.650Z,24.67
2022-08-05T11:24:05.379Z,24.63
2022-08-05T11:26:37.947Z,24.58
2022-08-05T11:29:14.373Z,24.53
2022-08-05T11:31:58.906Z,24.35
2022-08-05T11:34:52.214Z,24.54
2022-08-05T11:38:30.408Z,24.78
2022-08-05T11:41:01.354Z,25.12
2022-08-05T11:44:04.787Z,24.75
2022-08-05T11:46:35.611Z,24.73
2022-08-05T11:49:04.505Z,24.77
2022-08-05T11:51:44.256Z,24.48
2022-08-05T11:54:33.431Z,24.26
2022-08-05T11:57:07.987Z,24.41
2022-08-05T11:59:41.241Z,24.59
2022-08-05T12:02:31.451Z,24.63
2022-08-05T12:05:01.197Z,24.78
2022-08-05T12:08:03.301Z,24.86
2022-08-05T12:10:43.374Z,24.74
2022-08-05T12:13:27.924Z,25.00
2022-08-05T12:16:15.049Z,25.20
2022-08-05T12:18:49.086Z,25.67
2022-08-05T12:21:23.598Z,25.78
2022-08-05T12:23:56.776Z,25.58
2022-08-05T12:26:26.537Z,25.62
2022-08-05T12:28:54.704Z,25.54
2022-08-05T12:31:23.440Z,25.33
2022-08-05T12:34:09.787Z,25.44
2022-08-05T12:36:49.105Z,25.24
2022-08-05T12:39:17.676Z,25.19
2022-08-05T12:41:46.603Z,25.00
2022-08-05T12:44:28.697Z,25.01
2022-08-05T12:47:02.556Z,24.80
2022-08-05T12:50:03.388Z,24.86
2022-08-05T12:52:38.158Z,25.02
2022-08-05T12:55:22.224Z,25.24
2022-08-05T12:58:50.806Z,25.38
2022-08-05T13:02:00.324Z,25.65
2022-08-05T13:03:42.289Z,25.71
2022-08-05T13:06:18.098Z,25.84
2022-08-05T13:08:50.924Z,25.96
2022-08-05T13:11:25.637Z,26.05
2022-08-05T13:14:20.080Z,26.12
2022-08-05T13:16:53.955Z,26.27
2022-08-05T13:19:51.000Z,26.55
2022-08-05T13:22:27.743Z,26.48
2022-08-05T13:25:00.653Z,26.29
2022-08-05T13:27:38.438Z,26.52
2022-08-05T13:30:33.536Z,26.75
2022-08-05T13:33:01.373Z,26.61
2022-08-05T13:35:47.448Z,26.86
2022-08-05T13:38:30.982Z,26.91
2022-08-05T13:41:04.950Z,26.75
2022-08-05T13:43:44.271Z,26.82
2022-08-05T13:46:50.678Z,27.11
2022-08-05T13:49:13.731Z,27.14
2022-08-05T13:51:46.220Z,26.80
2022-08-05T13:54:21.115Z,26.58
2022-08-05T13:56:54.187Z,26.56
2022-08-05T13:59:24.346Z,26.60
2022-08-05T14:01:57.804Z,26.85
2022-08-05T14:04:49.446Z,27.13
2022-08-05T14:07:56.907Z,27.47
2022-08-05T14:10:12.519Z,27.76
2022-08-05T14:12:42.854Z,27.71
2022-08-05T14:16:04.846Z,27.78
2022-08-05T14:18:03.952Z,27.92
2022-08-05T14:20:33.153Z,28.19
2022-08-05T14:23:01.475Z,28.54
2022-08-05T14:25:32.355Z,28.52
2022-08-05T14:28:03.985Z,28.48
2022-08-05T14:30:32.478Z,28.27
2022-08-05T14:33:04.707Z,28.09
2022-08-05T14:35:50.229Z,28.10
2022-08-05T14:38:32.738Z,27.98
2022-08-05T14:41:07.656Z,28.13
2022-08-05T14:43:59.191Z,28.29
2022-08-05T14:46:28.316Z,28.62
2022-08-05T14:48:57.964Z,29.04
2022-08-05T14:51:31.047Z,29.43
2022-08-05T14:54:26.479Z,29.56
2022-08-05T14:56:51.710Z,29.58
2022-08-05T14:59:24.197Z,29.72
2022-08-05T15:01:54.239Z,29.81
2022-08-05T15:04:27.402Z,29.93
2022-08-05T15:06:58.208Z,29.98
2022-08-05T15:09:52.315Z,29.99
2022-08-05T15:12:18.351Z,29.95
2022-08-05T15:14:49.587Z,29.76
2022-08-05T15:17:46.896Z,29.57
2022-08-05T15:20:15.542Z,29.62
2022-08-05T15:22:54.004Z,29.48
2022-08-05T15:25:51.406Z,29.36
2022-08-05T15:28:14.630Z,29.23
2022-08-05T15:30:43.825Z,29.04
2022-08-05T15:34:04.045Z,28.91
2022-08-05T15:36:05.706Z,28.69
2022-08-05T15:38:47.943Z,28.66
2022-08-05T15:41:21.267Z,28.83
2022-08-05T15:43:54.893Z,28.91
2022-08-05T15:46:24.422Z,29.30
2022-08-05T15:48:58.534Z,29.34
2022-08-05T15:52:09.822Z,29.07
2022-08-05T15:54:17.678Z,29.19
2022-08-05T15:56:45.831Z,29.32
2022-08-05T15:59:21.611Z,29.29
2022-08-05T16:01:52.766Z,29.12
2022-08-05T16:04:25.383Z,28.93
2022-08-05T16:06:55.681Z,28.80
2022-08-05T16:09:24.878Z,28.92
2022-08-05T16:11:53.986Z,28.92
2022-08-05T16:14:23.944Z,28.93
2022-08-05T16:16:52.312Z,28.80
2022-08-05T16:20:02.664Z,28.61
2022-08-05T16:22:10.571Z,28.54
2022-08-05T16:24:39.978Z,28.67
2022-08-05T16:27:16.010Z,28.63
2022-08-05T16:29:50.890Z,28.54
2022-08-05T16:32:28.406Z,28.57
2022-08-05T16:34:58.650Z,28.55
2022-08-05T16:38:16.051Z,28.46
2022-08-05T16:40:26.528Z,28.51
2022-08-05T16:42:57.662Z,28.64
2022-08-05T16:46:06.811Z,28.50
2022-08-05T16:48:25.403Z,28.51
2022-08-05T16:50:54.449Z,28.41
2022-08-05T16:53:32.539Z,28.62
2022-08-05T16:56:11.681Z,28.90
2022-08-05T16:58:40.778Z,28.66
2022-08-05T17:01:10.838Z,28.69
2022-08-05T17:03:39.060Z,28.75
2022-08-05T17:06:07.510Z,28.66
2022-08-05T17:08:53.304Z,28.58
2022-08-05T17:11:23.491Z,28.30
2022-08-05T17:14:00.662Z,28.17
2022-08-05T17:16:36.602Z,27.96
2022-08-05T17:19:07.750Z,27.77
2022-08-05T17:21:39.645Z,27.81
2022-08-05T17:24:19.553Z,27.78
2022-08-05T17:26:57.351Z,27.90
2022-08-05T17:29:33.902Z,27.77
2022-08-05T17:32:11.927Z,27.22
2022-08-05T17:34:47.554Z,26.89
2022-08-05T17:37:39.417Z,26.66
2022-08-05T17:40:05.817Z,26.30
2022-08-05T17:42:41.656Z,26.10
2022-08-05T17:45:20.826Z,26.17
2022-08-05T17:47:54.643Z,26.27
2022-08-05T17:50:29.045Z,26.49
2022-08-05T17:53:00.146Z,26.28
2022-08-05T17:55:38.184Z,26.04
2022-08-05T17:58:12.481Z,25.88
2022-08-05T18:00:45.195Z,25.63
2022-08-05T18:03:58.612Z,25.51
2022-08-05T18:06:11.275Z,25.49
2022-08-05T18:08:44.846Z,25.34
2022-08-05T18:11:23.663Z,25.12
2022-08-05T18:14:03.576Z,25.08
2022-08-05T18:16:32.873Z,25.09
2022-08-05T18:19:02.550Z,24.86
2022-08-05T18:22:08.805Z,24.66
2022-08-05T18:24:18.762Z,24.39
2022-08-05T18:26:49.183Z,24.06
2022-08-05T18:29:17.416Z,23.77
2022-08-05T18:32:06.306Z,23.56
2022-08-05T18:34:41.062Z,23.33
2022-08-05T18:37:12.135Z,23.14
2022-08-05T18:40:31.434Z,23.01
2022-08-05T18:42:29.568Z,22.99
2022-08-05T18:44:57.760Z,22.94
2022-08-05T18:47:28.304Z,22.93
2022-08-05T18:50:18.221Z,22.98
2022-08-05T18:52:50.734Z,22.82
2022-08-05T18:55:19.908Z,22.75
2022-08-05T18:57:53.208Z,22.65
2022-08-05T19:00:29.169Z,22.65
2022-08-05T19:03:03.937Z,22.69
2022-08-05T19:06:11.671Z,22.65
2022-08-05T19:08:30.999Z,22.57
2022-08-05T19:11:02.785Z,22.54
2022-08-05T19:13:35.692Z,22.45
2022-08-05T19:16:05.686Z,22.39
2022-08-05T19:18:53.281Z,22.40
2022-08-05T19:21:27.644Z,22.36
2022-08-05T19:24:06.839Z,22.34
2022-08-05T19:26:54.398Z,22.32
2022-08-05T19:29:35.502Z,22.33
2022-08-05T19:32:04.514Z,22.35
2022-08-05T19:34:32.657Z,22.38
2022-08-05T19:37:02.326Z,22.32
2022-08-05T19:39:31.906Z,22.26
2022-08-05T19:42:15.356Z,22.27
2022-08-05T19:44:44.552Z,22.21
2022-08-05T19:47:16.046Z,22.17
2022-08-05T19:49:45.183Z,22.15
2022-08-05T19:52:30.611Z,22.12
2022-08-05T19:55:00.638Z,22.08
2022-08-05T19:58:00.635Z,22.05
2022-08-05T20:00:23.050Z,22.10
2022-08-05T20:02:51.143Z,22.09
2022-08-05T20:05:24.393Z,22.08
2022-08-05T20:07:58.929Z,22.00
2022-08-05T20:10:27.396Z,22.06
2022-08-05T20:12:57.088Z,22.03
2022-08-05T20:15:52.158Z,22.02
2022-08-05T20:18:33.583Z,22.03
2022-08-05T20:21:01.389Z,21.99
2022-08-05T20:23:40.006Z,21.95
2022-08-05T20:26:18.294Z,21.91
2022-08-05T20:28:48.593Z,21.89
2022-08-05T20:31:17.121Z,21.86
2022-08-05T20:33:45.735Z,21.83
2022-08-05T20:36:16.382Z,21.83
2022-08-05T20:38:54.337Z,21.83
2022-08-05T20:41:43.284Z,21.79
2022-08-05T20:44:29.788Z,21.73
2022-08-05T20:46:59.706Z,21.71
2022-08-05T20:49:27.854Z,21.71
2022-08-05T20:51:57.587Z,21.68
2022-08-05T20:54:43.442Z,21.64
2022-08-05T20:57:24.859Z,21.64
2022-08-05T21:00:19.783Z,21.61
2022-08-05T21:02:52.204Z,21.55
2022-08-05T21:05:20.509Z,21.54
2022-08-05T21:07:52.217Z,21.53
2022-08-05T21:10:22.182Z,21.54
2022-08-05T21:12:57.753Z,21.53
2022-08-05T21:15:33.671Z,21.52
2022-08-05T21:18:02.244Z,21.53
2022-08-05T21:20:33.534Z,21.52
2022-08-05T21:23:03.132Z,21.49
2022-08-05T21:25:33.700Z,21.43
2022-08-05T21:28:03.238Z,21.40
2022-08-05T21:30:31.631Z,21.40
2022-08-05T21:32:59.948Z,21.41
2022-08-05T21:35:56.045Z,21.43
2022-08-05T21:38:19.135Z,21.43
2022-08-05T21:40:48.722Z,21.40
2022-08-05T21:43:24.329Z,21.37
2022-08-05T21:45:56.350Z,21.33
2022-08-05T21:48:26.019Z,21.27
2022-08-05T21:50:54.646Z,21.20
2022-08-05T21:53:24.837Z,21.13
2022-08-05T21:56:09.812Z,21.02
2022-08-05T21:58:48.405Z,21.03
2022-08-05T22:01:25.428Z,21.04
2022-08-05T22:03:54.072Z,20.99
2022-08-05T22:06:35.199Z,20.95
2022-08-05T22:09:13.858Z,20.90
2022-08-05T22:11:47.122Z,20.86
2022-08-05T22:14:33.000Z,20.83
2022-08-05T22:17:05.395Z,20.73
2022-08-05T22:20:03.235Z,20.67
2022-08-05T22:22:27.333Z,20.58
2022-08-05T22:25:18.147Z,20.53
2022-08-05T22:28:11.379Z,20.53
2022-08-05T22:30:55.458Z,20.50
2022-08-05T22:33:55.650Z,20.51
2022-08-05T22:36:15.138Z,20.44
2022-08-05T22:38:48.260Z,20.34
2022-08-05T22:42:04.153Z,20.29
2022-08-05T22:44:07.917Z,20.28
2022-08-05T22:46:39.468Z,20.31
2022-08-05T22:49:08.174Z,20.37
2022-08-05T22:52:04.740Z,20.40
2022-08-05T22:54:35.041Z,20.36
2022-08-05T22:57:03.527Z,20.36
2022-08-05T22:59:48.287Z,20.35
2022-08-05T23:02:29.263Z,20.34
2022-08-05T23:05:01.940Z,20.30
2022-08-05T23:07:45.458Z,20.30
2022-08-05T23:10:20.167Z,20.25
2022-08-05T23:12:51.459Z,20.20
2022-08-05T23:15:27.005Z,20.20
2022-08-05T23:18:00.761Z,20.23
2022-08-05T23:20:31.048Z,20.22
2022-08-05T23:22:59.213Z,20.15
2022-08-05T23:25:53.362Z,20.05
2022-08-05T23:28:17.406Z,19.95
2022-08-05T23:30:53.799Z,19.85
2022-08-05T23:34:02.909Z,19.80
2022-08-05T23:36:13.394Z,19.77
2022-08-05T23:38:43.062Z,19.73
2022-08-05T23:41:12.262Z,19.75
2022-08-05T23:44:05.804Z,19.74
2022-08-05T23:46:31.158Z,19.71
2022-08-05T23:49:01.926Z,19.67
2022-08-05T23:52:01.261Z,19.64
2022-08-05T23:54:34.167Z,19.61
2022-08-05T23:57:06.654Z,19.60
